createdAt,value
2023-03-23T15:59:28.108Z,100612.69
2023-03-23T16:01:56.757Z,100611.66
2023-03-23T16:04:26.759Z,100615.97
2023-03-23T16:06:59.134Z,100611.25
2023-03-23T16:09:27.529Z,100620.91
2023-03-23T16:11:57.221Z,100620.66
2023-03-23T16:14:25.589Z,100624.13
2023-03-23T16:16:54.041Z,100617.19
2023-03-23T16:19:24.587Z,100622.66
2023-03-23T16:21:53.035Z,100624.38
2023-03-23T16:24:22.456Z,100635.44
2023-03-23T16:26:50.684Z,100644.28
2023-03-23T16:29:40.079Z,100638.50
2023-03-23T16:32:08.694Z,100636.13
2023-03-23T16:34:38.400Z,100635.66
2023-03-23T16:37:07.551Z,100634.28
2023-03-23T16:39:35.941Z,100637.28
2023-03-23T16:42:04.361Z,100634.06
2023-03-23T16:44:34.103Z,100636.78
2023-03-23T16:47:02.394Z,100637.63
2023-03-23T16:49:30.744Z,100642.97
2023-03-23T16:51:59.048Z,100640.84
2023-03-23T16:54:27.478Z,100641.94
2023-03-23T16:56:55.920Z,100655.56
2023-03-23T16:59:24.219Z,100648.16
2023-03-23T17:01:54.097Z,100645.78
2023-03-23T17:04:22.814Z,100650.06
2023-03-23T17:06:51.846Z,100637.81
2023-03-23T17:09:20.186Z,100640.97
2023-03-23T17:11:48.640Z,100639.66
2023-03-23T17:14:16.990Z,100648.16
2023-03-23T17:16:45.335Z,100649.56
2023-03-23T17:19:15.757Z,100652.47
2023-03-23T17:21:44.180Z,100650.09
2023-03-23T17:24:12.775Z,100662.88
2023-03-23T17:26:41.070Z,100655.69
2023-03-23T17:29:09.369Z,100663.66
2023-03-23T17:31:38.305Z,100666.59
2023-03-23T17:34:06.762Z,100674.84
2023-03-23T17:36:36.900Z,100664.44
2023-03-23T17:39:05.431Z,100665.50
2023-03-23T17:41:33.686Z,100668.16
2023-03-23T17:44:02.286Z,100676.44
2023-03-23T17:46:30.760Z,100669.00
2023-03-23T17:48:59.016Z,100676.44
2023-03-23T17:51:27.566Z,100677.22
2023-03-23T17:53:57.661Z,100680.44
2023-03-23T17:56:25.944Z,100679.09
2023-03-23T17:58:54.200Z,100677.25
2023-03-23T18:01:22.911Z,100685.47
2023-03-23T18:03:51.367Z,100681.50
2023-03-23T18:06:19.950Z,100684.41
2023-03-23T18:08:48.232Z,100683.09
2023-03-23T18:11:18.044Z,100684.16
2023-03-23T18:13:46.292Z,100686.81
2023-03-23T18:16:14.576Z,100683.59
2023-03-23T18:18:42.854Z,100696.09
2023-03-23T18:21:11.868Z,100696.09
2023-03-23T18:23:49.059Z,100698.22
2023-03-23T18:26:23.435Z,100693.44
2023-03-23T18:28:52.732Z,100687.06
2023-03-23T18:31:22.375Z,100694.81
2023-03-23T18:33:54.141Z,100689.19
2023-03-23T18:36:24.301Z,100696.94
2023-03-23T18:38:52.641Z,100695.84
2023-03-23T18:41:22.391Z,100697.22
2023-03-23T18:43:50.734Z,100699.56
2023-03-23T18:46:19.654Z,100695.06
2023-03-23T18:48:48.093Z,100698.00
2023-03-23T18:51:16.400Z,100702.25
2023-03-23T18:53:44.791Z,100697.97
2023-03-23T18:56:15.897Z,100695.59
2023-03-23T18:58:46.108Z,100695.34
2023-03-23T19:01:18.200Z,100694.78
2023-03-23T19:03:47.147Z,100704.13
2023-03-23T19:06:18.359Z,100695.63
2023-03-23T19:08:47.491Z,100696.41
2023-03-23T19:11:16.124Z,100691.88
2023-03-23T19:13:58.493Z,100699.06
2023-03-23T19:16:31.338Z,100697.19
2023-03-23T19:18:59.742Z,100701.47
2023-03-23T19:21:29.782Z,100700.94
2023-03-23T19:23:59.699Z,100698.78
2023-03-23T19:26:33.173Z,100706.00
2023-03-23T19:29:25.306Z,100699.31
2023-03-23T19:31:53.499Z,100710.75
2023-03-23T19:34:22.001Z,100703.81
2023-03-23T19:36:55.085Z,100700.13
2023-03-23T19:39:32.558Z,100703.31
2023-03-23T19:42:01.075Z,100697.47
2023-03-23T19:44:30.959Z,100700.38
2023-03-23T19:46:59.944Z,100698.50
2023-03-23T19:49:29.004Z,100704.88
2023-03-23T19:52:08.810Z,100699.03
2023-03-23T19:54:41.121Z,100708.88
2023-03-23T19:57:11.358Z,100711.81
2023-03-23T19:59:41.078Z,100708.09
2023-03-23T20:02:12.347Z,100718.19
2023-03-23T20:04:41.173Z,100723.00
2023-03-23T20:07:09.983Z,100716.09
2023-03-23T20:09:38.921Z,100720.34
2023-03-23T20:12:07.942Z,100716.59
2023-03-23T20:14:38.235Z,100721.94
2023-03-23T20:17:09.840Z,100718.75
2023-03-23T20:19:38.407Z,100718.75
2023-03-23T20:22:07.971Z,100714.22
2023-03-23T20:24:37.041Z,100721.94
2023-03-23T20:27:06.642Z,100723.50
2023-03-23T20:29:35.085Z,100718.19
2023-03-23T20:32:03.752Z,100726.19
2023-03-23T20:34:33.516Z,100723.53
2023-03-23T20:37:02.767Z,100719.81
2023-03-23T20:39:33.955Z,100725.66
2023-03-23T20:42:05.945Z,100718.72
2023-03-23T20:44:36.235Z,100727.78
2023-03-23T20:47:05.120Z,100719.53
2023-03-23T20:49:37.201Z,100721.38
2023-03-23T20:52:06.764Z,100719.25
2023-03-23T20:54:38.066Z,100713.44
2023-03-23T20:57:08.486Z,100713.69
2023-03-23T20:59:36.857Z,100713.94
2023-03-23T21:02:05.884Z,100716.06
2023-03-23T21:04:37.371Z,100709.41
2023-03-23T21:07:05.898Z,100711.53
2023-03-23T21:09:34.223Z,100702.72
2023-03-23T21:12:04.567Z,100710.13
2023-03-23T21:14:33.435Z,100704.81
2023-03-23T21:17:02.542Z,100706.97
2023-03-23T21:19:32.108Z,100702.69
2023-03-23T21:22:02.358Z,100700.03
2023-03-23T21:24:32.598Z,100706.66
2023-03-23T21:27:03.011Z,100697.38
2023-03-23T21:29:31.648Z,100697.41
2023-03-23T21:32:08.249Z,100696.09
2023-03-23T21:34:38.085Z,100695.31
2023-03-23T21:37:07.827Z,100691.56
2023-03-23T21:39:36.398Z,100687.59
2023-03-23T21:42:07.090Z,100686.50
2023-03-23T21:44:36.281Z,100691.06
2023-03-23T21:47:04.828Z,100690.00
2023-03-23T21:49:33.508Z,100693.16
2023-03-23T21:52:02.240Z,100687.31
2023-03-23T21:54:34.371Z,100680.41
2023-03-23T21:57:02.798Z,100678.25
2023-03-23T21:59:31.217Z,100677.75
2023-03-23T22:02:02.862Z,100668.44
2023-03-23T22:04:31.207Z,100674.28
2023-03-23T22:06:59.668Z,100672.19
2023-03-23T22:09:28.239Z,100674.31
2023-03-23T22:11:58.300Z,100670.34
2023-03-23T22:14:26.657Z,100669.53
2023-03-23T22:16:55.224Z,100667.41
2023-03-23T22:19:23.570Z,100673.53
2023-03-23T22:21:51.855Z,100676.72
2023-03-23T22:24:20.667Z,100665.53
2023-03-23T22:26:49.144Z,100674.31
2023-03-23T22:29:18.929Z,100669.81
2023-03-23T22:31:47.571Z,100676.44
2023-03-23T22:34:18.593Z,100673.50
2023-03-23T22:36:48.732Z,100677.00
2023-03-23T22:39:17.146Z,100679.91
2023-03-23T22:41:45.741Z,100675.34
2023-03-23T22:44:18.154Z,100688.66
2023-03-23T22:46:47.961Z,100685.22
2023-03-23T22:49:16.757Z,100683.06
2023-03-23T22:51:45.271Z,100672.72
2023-03-23T22:54:13.678Z,100684.41
2023-03-23T22:56:42.020Z,100683.59
2023-03-23T22:59:11.151Z,100680.41
2023-03-23T23:01:39.846Z,100684.63
2023-03-23T23:04:09.896Z,100679.84
2023-03-23T23:06:38.442Z,100675.31
2023-03-23T23:09:07.092Z,100674.78
2023-03-23T23:11:35.536Z,100670.75
2023-03-23T23:14:05.127Z,100667.03
2023-03-23T23:16:33.500Z,100673.69
2023-03-23T23:19:02.123Z,100672.34
2023-03-23T23:21:33.274Z,100676.59
2023-03-23T23:24:01.904Z,100668.09
2023-03-23T23:26:31.319Z,100664.38
2023-03-23T23:29:01.254Z,100660.41
2023-03-23T23:31:33.777Z,100666.25
2023-03-23T23:34:03.563Z,100654.84
2023-03-23T23:36:33.829Z,100657.78
2023-03-23T23:39:03.456Z,100658.06
2023-03-23T23:41:31.861Z,100653.00
2023-03-23T23:44:01.424Z,100653.25
2023-03-23T23:46:30.832Z,100654.56
2023-03-23T23:48:59.641Z,100652.97
2023-03-23T23:51:28.516Z,100649.47
2023-03-23T23:54:01.629Z,100648.44
2023-03-23T23:56:30.425Z,100654.25
2023-03-23T23:58:59.174Z,100648.94
